Terminal Aerodrome Forecast
Issued by NWS

Home | Current Version | Previous Version | Text Only | Print | Product List | Glossary On
Versions: 1 2 3 4 5 6 7 8 9 10 11 12 13 14
000
FTUS45 KABQ 050530
TAFAEG
TAF
KAEG 050530Z 0506/0606 VRB04KT P6SM SCT020 BKN040
      TEMPO 0509/0513 BKN030
     FM051600 18006KT P6SM SCT050 SCT150
     FM052100 20012KT P6SM VCTS BKN090CB
     FM060230 25006KT P6SM FEW090 FEW120=

USA.gov is the U.S. government's official web portal to all federal, state and local government web resources and services.